Airport Information

KORS - Orcas Island Airport

KORS 160835Z AUTO 00000KT 10SM OVC090 05/M00 A2979 RMK AO2


  • General Information

  • Coordinates: N 48°42'29"/ W 122°54'38"
  • Location: N/A
  • Surveyed Elevation: 31 MSL

Operations

Flow Name Active Runways Conditions

Green background denotes normal operations.


Common Frequencies

Callsign Frequency Position Name

More at the Document Center


Charts

Name Description Cycle
FEGBA TWO Page 1 1901
Name Description Cycle